Time;durP1;ratioP1;P1;durP2;ratioP2;P2;SDS_P1;SDS_P2;PMS_P1;PMS_P2;Temp;Humidity;BMP_temperature;BMP_pressure;BME280_temperature;BME280_humidity;BME280_pressure;Samples;Min_cycle;Max_cycle;Signal;HPM_P1;HPM_P2
2022/05/04 00:00:09;;;;;;;0.20;0.20;;;;;;;;;;1866607;76;26743;-46
2022/05/04 00:02:37;;;;;;;0.20;0.20;;;;;;;;;;1882751;76;26269;-45
2022/05/04 00:05:05;;;;;;;0.30;0.30;;;;;;;;;;1884959;76;26309;-46
2022/05/04 00:07:32;;;;;;;0.30;0.30;;;;;;;;;;1884939;76;26282;-45
2022/05/04 00:10:00;;;;;;;0.30;0.30;;;;;;;;;;1862484;76;26325;-46
2022/05/04 00:12:27;;;;;;;0.28;0.28;;;;;;;;;;1880769;76;26256;-45
2022/05/04 00:14:55;;;;;;;0.30;0.30;;;;;;;;;;1886846;76;26256;-43
2022/05/04 00:17:22;;;;;;;0.33;0.33;;;;;;;;;;1887413;76;26730;-44
2022/05/04 00:19:49;;;;;;;0.30;0.30;;;;;;;;;;1887497;76;26206;-45
2022/05/04 00:22:20;;;;;;;0.40;0.30;;;;;;;;;;1887319;76;26277;-45
2022/05/04 00:24:48;;;;;;;0.37;0.37;;;;;;;;;;1860570;76;26748;-44
2022/05/04 00:27:15;;;;;;;0.90;0.20;;;;;;;;;;1853806;77;26288;-44
2022/05/04 00:29:43;;;;;;;0.62;0.30;;;;;;;;;;1866415;76;26312;-46
2022/05/04 00:32:12;;;;;;;0.30;0.30;;;;;;;;;;1886538;76;26732;-45
2022/05/04 00:34:40;;;;;;;0.42;0.42;;;;;;;;;;1886893;76;26879;-46
2022/05/04 00:37:07;;;;;;;0.20;0.20;;;;;;;;;;1880192;75;26250;-46
2022/05/04 00:39:35;;;;;;;0.28;0.28;;;;;;;;;;1878667;76;26315;-43
2022/05/04 00:42:15;;;;;;;0.30;0.30;;;;;;;;;;1878028;76;26273;-44
2022/05/04 00:44:44;;;;;;;0.30;0.30;;;;;;;;;;1885267;74;26769;-45
2022/05/04 00:47:12;;;;;;;0.37;0.37;;;;;;;;;;1847562;77;26592;-47
2022/05/04 00:49:40;;;;;;;0.20;0.20;;;;;;;;;;1824435;76;26278;-42
2022/05/04 00:52:09;;;;;;;0.30;0.30;;;;;;;;;;1844621;76;26581;-44
2022/05/04 00:54:36;;;;;;;0.25;0.25;;;;;;;;;;1889406;74;26797;-42
2022/05/04 00:57:05;;;;;;;0.28;0.28;;;;;;;;;;1862635;76;26950;-42
2022/05/04 00:59:32;;;;;;;0.42;0.35;;;;;;;;;;1842319;77;26759;-49
2022/05/04 01:02:00;;;;;;;0.45;0.28;;;;;;;;;;1862278;76;26367;-47
2022/05/04 01:04:27;;;;;;;0.55;0.40;;;;;;;;;;1862340;77;26233;-42
2022/05/04 01:06:55;;;;;;;0.20;0.20;;;;;;;;;;1873513;74;26419;-43
2022/05/04 01:09:23;;;;;;;0.40;0.40;;;;;;;;;;1849644;77;26628;-45
2022/05/04 01:11:50;;;;;;;0.40;0.40;;;;;;;;;;1853781;77;26310;-46
2022/05/04 01:14:18;;;;;;;0.25;0.25;;;;;;;;;;1857307;76;26366;-45
2022/05/04 01:16:48;;;;;;;0.30;0.30;;;;;;;;;;1838885;78;26798;-45
2022/05/04 01:19:16;;;;;;;0.33;0.33;;;;;;;;;;1845756;76;26335;-45
2022/05/04 01:21:45;;;;;;;0.30;0.30;;;;;;;;;;1855791;77;26341;-46
2022/05/04 01:24:12;;;;;;;0.30;0.30;;;;;;;;;;1856003;77;26741;-47
2022/05/04 01:26:40;;;;;;;0.28;0.28;;;;;;;;;;1856007;77;26345;-43
2022/05/04 01:29:07;;;;;;;0.20;0.20;;;;;;;;;;1854512;77;26323;-44
2022/05/04 01:31:34;;;;;;;0.40;0.40;;;;;;;;;;1846559;78;26291;-45
2022/05/04 01:34:02;;;;;;;0.30;0.30;;;;;;;;;;1870076;75;26292;-43
2022/05/04 01:36:29;;;;;;;0.30;0.30;;;;;;;;;;1896091;75;26671;-42
2022/05/04 01:38:56;;;;;;;0.13;0.13;;;;;;;;;;1878934;75;26661;-43
2022/05/04 01:44:09;;;;;;;0.20;0.20;;;;;;;;;;1878626;76;26270;-43
2022/05/04 01:46:36;;;;;;;0.33;0.30;;;;;;;;;;1879904;75;26292;-47
2022/05/04 01:49:04;;;;;;;0.30;0.30;;;;;;;;;;1839373;78;26355;-44
2022/05/04 01:51:31;;;;;;;0.40;0.40;;;;;;;;;;1859667;76;26371;-44
2022/05/04 01:53:58;;;;;;;0.30;0.30;;;;;;;;;;1879052;76;26335;-45
2022/05/04 01:56:26;;;;;;;0.70;0.40;;;;;;;;;;1876579;76;26273;-45
2022/05/04 01:58:54;;;;;;;0.30;0.30;;;;;;;;;;1858919;76;26369;-46
2022/05/04 02:01:22;;;;;;;0.28;0.28;;;;;;;;;;1887157;76;26308;-43
2022/05/04 02:03:49;;;;;;;1.00;0.30;;;;;;;;;;1888480;75;26261;-43
2022/05/04 02:06:17;;;;;;;0.70;0.30;;;;;;;;;;1887556;76;26265;-46
2022/05/04 02:08:45;;;;;;;0.35;0.35;;;;;;;;;;1882562;76;26305;-47
2022/05/04 02:11:13;;;;;;;0.37;0.37;;;;;;;;;;1823807;77;26586;-43
2022/05/04 02:13:40;;;;;;;0.30;0.30;;;;;;;;;;1819874;77;26380;-45
2022/05/04 02:16:08;;;;;;;0.30;0.20;;;;;;;;;;1833065;78;26280;-42
2022/05/04 02:18:35;;;;;;;0.30;0.30;;;;;;;;;;1846440;78;26367;-43
2022/05/04 02:21:03;;;;;;;0.33;0.33;;;;;;;;;;1846561;78;26808;-45
2022/05/04 02:23:30;;;;;;;0.25;0.25;;;;;;;;;;1846479;78;26256;-45
2022/05/04 02:25:57;;;;;;;0.20;0.20;;;;;;;;;;1846536;77;26311;-46
2022/05/04 02:28:25;;;;;;;0.33;0.30;;;;;;;;;;1842269;77;26304;-46
2022/05/04 02:30:52;;;;;;;0.30;0.30;;;;;;;;;;1835644;77;26261;-45
2022/05/04 02:33:19;;;;;;;0.30;0.30;;;;;;;;;;1826686;78;26288;-43
2022/05/04 02:38:32;;;;;;;0.28;0.20;;;;;;;;;;1796621;80;26332;-44
2022/05/04 02:40:59;;;;;;;0.30;0.30;;;;;;;;;;1796785;79;26606;-44
2022/05/04 02:43:28;;;;;;;0.40;0.40;;;;;;;;;;1820444;78;26303;-47
2022/05/04 02:45:56;;;;;;;0.23;0.23;;;;;;;;;;1828785;78;26290;-46
2022/05/04 02:48:23;;;;;;;0.20;0.20;;;;;;;;;;1826638;78;26364;-44
2022/05/04 02:50:50;;;;;;;0.20;0.20;;;;;;;;;;1826414;78;26833;-46
2022/05/04 02:53:18;;;;;;;0.33;0.20;;;;;;;;;;1826695;78;27213;-42
2022/05/04 02:55:45;;;;;;;0.33;0.33;;;;;;;;;;1824789;78;26279;-47
2022/05/04 02:58:12;;;;;;;0.20;0.20;;;;;;;;;;1825620;78;26372;-45
2022/05/04 03:00:39;;;;;;;0.30;0.30;;;;;;;;;;1841437;78;26273;-43
2022/05/04 03:03:06;;;;;;;0.30;0.30;;;;;;;;;;1846346;78;26291;-44
2022/05/04 03:05:34;;;;;;;0.20;0.20;;;;;;;;;;1846650;78;26210;-44
2022/05/04 03:08:01;;;;;;;0.45;0.23;;;;;;;;;;1843497;78;26388;-44
2022/05/04 03:10:29;;;;;;;2.27;0.20;;;;;;;;;;1833432;77;26375;-46
2022/05/04 03:12:56;;;;;;;0.20;0.20;;;;;;;;;;1840434;78;26332;-45
2022/05/04 03:15:23;;;;;;;0.33;0.30;;;;;;;;;;1839669;77;26291;-47
2022/05/04 03:17:50;;;;;;;0.20;0.20;;;;;;;;;;1837532;78;26279;-44
2022/05/04 03:20:18;;;;;;;0.20;0.20;;;;;;;;;;1822241;77;26304;-47
2022/05/04 03:22:45;;;;;;;0.20;0.20;;;;;;;;;;1843159;76;26761;-44
2022/05/04 03:25:13;;;;;;;0.30;0.30;;;;;;;;;;1846596;78;26743;-43
2022/05/04 03:27:40;;;;;;;0.30;0.30;;;;;;;;;;1846510;78;26674;-44
2022/05/04 03:30:08;;;;;;;0.20;0.20;;;;;;;;;;1844920;77;26710;-46
2022/05/04 03:32:36;;;;;;;0.20;0.20;;;;;;;;;;1846439;77;26444;-46
2022/05/04 03:35:03;;;;;;;0.20;0.20;;;;;;;;;;1872475;76;26790;-47
2022/05/04 03:37:30;;;;;;;0.40;0.23;;;;;;;;;;1837492;78;26276;-43
2022/05/04 03:39:57;;;;;;;0.25;0.25;;;;;;;;;;1878376;76;26266;-44
2022/05/04 03:42:25;;;;;;;0.20;0.20;;;;;;;;;;1832794;76;26261;-45
2022/05/04 03:44:52;;;;;;;0.17;0.17;;;;;;;;;;1845912;76;26351;-44
2022/05/04 03:47:19;;;;;;;0.20;0.20;;;;;;;;;;1882307;76;26284;-44
2022/05/04 03:49:47;;;;;;;0.10;0.10;;;;;;;;;;1882273;76;26288;-46
2022/05/04 03:52:14;;;;;;;0.20;0.20;;;;;;;;;;1882316;76;26288;-45
2022/05/04 03:54:41;;;;;;;0.28;0.28;;;;;;;;;;1888743;73;26385;-47
2022/05/04 03:57:09;;;;;;;0.42;0.42;;;;;;;;;;1915143;75;26362;-46
2022/05/04 03:59:36;;;;;;;0.20;0.20;;;;;;;;;;1914993;75;26261;-45
2022/05/04 04:02:04;;;;;;;0.10;0.10;;;;;;;;;;1878073;75;26226;-47
2022/05/04 04:04:31;;;;;;;0.30;0.30;;;;;;;;;;1878227;76;26261;-46
2022/05/04 04:06:59;;;;;;;0.20;0.20;;;;;;;;;;1882963;76;26269;-43
2022/05/04 04:09:26;;;;;;;0.20;0.20;;;;;;;;;;1864584;75;26319;-49
2022/05/04 04:11:53;;;;;;;0.20;0.20;;;;;;;;;;1890668;74;26285;-43
2022/05/04 04:14:20;;;;;;;0.10;0.10;;;;;;;;;;1905442;75;26220;-46
2022/05/04 04:16:48;;;;;;;0.28;0.28;;;;;;;;;;1888926;75;26325;-47
2022/05/04 04:19:15;;;;;;;0.20;0.20;;;;;;;;;;1890847;76;26736;-46
2022/05/04 04:21:52;;;;;;;0.20;0.20;;;;;;;;;;1890996;76;26744;-44
2022/05/04 04:24:20;;;;;;;0.28;0.28;;;;;;;;;;1891041;76;26326;-43
2022/05/04 04:26:47;;;;;;;0.15;0.15;;;;;;;;;;1891207;76;26860;-44
2022/05/04 04:29:14;;;;;;;0.30;0.30;;;;;;;;;;1885182;76;26822;-43
2022/05/04 04:31:42;;;;;;;0.20;0.20;;;;;;;;;;1887409;76;26788;-44
2022/05/04 04:34:10;;;;;;;0.20;0.20;;;;;;;;;;1887522;76;26276;-44
2022/05/04 04:36:37;;;;;;;0.30;0.30;;;;;;;;;;1886152;74;26241;-43
2022/05/04 04:39:05;;;;;;;0.62;0.30;;;;;;;;;;1886931;76;26261;-45
2022/05/04 04:41:32;;;;;;;0.20;0.20;;;;;;;;;;1879902;75;26737;-46
2022/05/04 04:43:59;;;;;;;0.42;0.30;;;;;;;;;;1879765;76;26287;-45
2022/05/04 04:46:27;;;;;;;0.90;0.30;;;;;;;;;;1877574;76;26757;-45
2022/05/04 04:48:54;;;;;;;0.65;0.20;;;;;;;;;;1873309;76;26725;-43
2022/05/04 04:51:21;;;;;;;0.30;0.30;;;;;;;;;;1874848;76;26297;-42
2022/05/04 04:53:48;;;;;;;0.20;0.20;;;;;;;;;;1829860;78;26563;-44
2022/05/04 04:56:16;;;;;;;1.25;0.40;;;;;;;;;;1849376;77;26281;-44
2022/05/04 04:58:43;;;;;;;0.20;0.20;;;;;;;;;;1852731;76;26327;-44
2022/05/04 05:01:10;;;;;;;0.88;0.30;;;;;;;;;;1854860;76;26259;-43
2022/05/04 05:03:37;;;;;;;0.40;0.40;;;;;;;;;;1857191;77;26287;-46
2022/05/04 05:06:05;;;;;;;0.35;0.35;;;;;;;;;;1858251;76;26306;-45
2022/05/04 05:08:32;;;;;;;1.35;0.30;;;;;;;;;;1856167;76;26283;-45
2022/05/04 05:10:59;;;;;;;0.45;0.45;;;;;;;;;;1856168;76;26307;-43
2022/05/04 05:13:27;;;;;;;1.27;0.33;;;;;;;;;;1843596;78;26436;-44
2022/05/04 05:16:09;;;;;;;0.30;0.30;;;;;;;;;;1844969;77;26286;-44
2022/05/04 05:18:37;;;;;;;1.00;0.30;;;;;;;;;;1847099;77;26755;-43
2022/05/04 05:21:05;;;;;;;0.47;0.47;;;;;;;;;;1847133;77;26343;-44
2022/05/04 05:23:32;;;;;;;0.40;0.40;;;;;;;;;;1846086;77;26301;-47
2022/05/04 05:26:00;;;;;;;1.32;0.33;;;;;;;;;;1825672;77;26296;-48
2022/05/04 05:28:27;;;;;;;0.78;0.50;;;;;;;;;;1840056;78;26234;-43
2022/05/04 05:30:54;;;;;;;0.40;0.40;;;;;;;;;;1834018;78;26284;-44
2022/05/04 05:33:22;;;;;;;0.30;0.30;;;;;;;;;;1842746;78;26330;-45
2022/05/04 05:35:49;;;;;;;0.30;0.30;;;;;;;;;;1839630;78;26291;-44
2022/05/04 05:38:17;;;;;;;0.53;0.50;;;;;;;;;;1842672;77;26292;-43
2022/05/04 05:40:44;;;;;;;2.30;0.40;;;;;;;;;;1842677;78;26280;-43
2022/05/04 05:43:11;;;;;;;0.40;0.30;;;;;;;;;;1842063;78;26335;-43
2022/05/04 05:45:39;;;;;;;0.95;0.40;;;;;;;;;;1839850;78;26309;-44
2022/05/04 05:48:06;;;;;;;0.53;0.37;;;;;;;;;;1838125;78;26347;-44
2022/05/04 05:50:34;;;;;;;0.40;0.40;;;;;;;;;;1839746;78;26342;-44
2022/05/04 05:53:02;;;;;;;0.40;0.35;;;;;;;;;;1839566;78;26280;-44
2022/05/04 05:55:32;;;;;;;2.05;0.33;;;;;;;;;;1842820;78;26632;-45
2022/05/04 05:58:00;;;;;;;3.20;0.53;;;;;;;;;;1842670;78;25978;-44
2022/05/04 06:00:28;;;;;;;1.35;0.50;;;;;;;;;;1839429;78;26264;-43
2022/05/04 06:02:55;;;;;;;1.77;0.70;;;;;;;;;;1839972;77;26285;-44
2022/05/04 06:05:22;;;;;;;0.70;0.70;;;;;;;;;;1839651;78;26317;-48
2022/05/04 06:07:50;;;;;;;0.70;0.70;;;;;;;;;;1840709;78;26209;-45
2022/05/04 06:10:17;;;;;;;0.95;0.72;;;;;;;;;;1838608;78;26395;-45
2022/05/04 06:12:44;;;;;;;0.70;0.70;;;;;;;;;;1830251;77;26416;-44
2022/05/04 06:15:14;;;;;;;0.90;0.80;;;;;;;;;;1822068;78;26283;-47
2022/05/04 06:17:42;;;;;;;1.20;0.75;;;;;;;;;;1825014;78;26989;-45
2022/05/04 06:20:09;;;;;;;0.88;0.88;;;;;;;;;;1821827;78;26318;-45
2022/05/04 06:22:37;;;;;;;0.98;0.70;;;;;;;;;;1825273;78;26781;-44
2022/05/04 06:25:05;;;;;;;0.70;0.70;;;;;;;;;;1823213;78;26292;-46
2022/05/04 06:27:32;;;;;;;1.32;0.88;;;;;;;;;;1825349;78;26275;-47
2022/05/04 06:35:31;;;;;;;0.75;0.70;;;;;;;;;;1824790;78;26308;-43
2022/05/04 06:37:58;;;;;;;0.75;0.75;;;;;;;;;;1824781;78;26754;-47
2022/05/04 06:40:25;;;;;;;1.10;0.80;;;;;;;;;;1824171;78;26305;-46
2022/05/04 06:42:53;;;;;;;1.00;0.80;;;;;;;;;;1823118;78;26338;-47
2022/05/04 06:45:20;;;;;;;1.50;0.80;;;;;;;;;;1826551;78;26764;-44
2022/05/04 06:47:48;;;;;;;2.37;0.70;;;;;;;;;;1819937;78;26271;-45
2022/05/04 06:50:16;;;;;;;0.65;0.65;;;;;;;;;;1826017;78;26276;-45
2022/05/04 06:52:44;;;;;;;0.70;0.70;;;;;;;;;;1829385;78;26370;-44
2022/05/04 06:55:12;;;;;;;0.78;0.60;;;;;;;;;;1830052;78;26284;-42
2022/05/04 06:57:39;;;;;;;1.42;0.60;;;;;;;;;;1834766;78;26300;-44
2022/05/04 07:00:08;;;;;;;1.65;0.70;;;;;;;;;;1811464;79;26315;-45
2022/05/04 07:02:35;;;;;;;0.75;0.53;;;;;;;;;;1814392;79;26273;-45
2022/05/04 07:05:03;;;;;;;1.47;0.72;;;;;;;;;;1815216;78;26291;-44
2022/05/04 07:07:31;;;;;;;1.12;0.50;;;;;;;;;;1789821;77;26615;-45
2022/05/04 07:09:58;;;;;;;0.40;0.40;;;;;;;;;;1836193;77;26307;-46
2022/05/04 07:12:26;;;;;;;0.62;0.50;;;;;;;;;;1856877;76;26293;-43
2022/05/04 07:14:56;;;;;;;0.57;0.57;;;;;;;;;;1874221;76;26684;-46
2022/05/04 07:17:23;;;;;;;0.40;0.40;;;;;;;;;;1858151;76;26881;-46
2022/05/04 07:19:50;;;;;;;0.60;0.60;;;;;;;;;;1857851;76;26280;-48
2022/05/04 07:22:17;;;;;;;0.40;0.40;;;;;;;;;;1852368;77;26794;-48
2022/05/04 07:24:45;;;;;;;2.25;0.50;;;;;;;;;;1852493;76;26295;-52
2022/05/04 07:27:12;;;;;;;0.40;0.40;;;;;;;;;;1849687;76;26247;-47
2022/05/04 07:29:40;;;;;;;0.30;0.30;;;;;;;;;;1845908;77;26341;-48
2022/05/04 07:32:08;;;;;;;0.40;0.40;;;;;;;;;;1857485;77;26974;-51
2022/05/04 07:34:36;;;;;;;0.40;0.40;;;;;;;;;;1852792;77;25776;-51
2022/05/04 07:37:04;;;;;;;0.50;0.45;;;;;;;;;;1854890;76;26361;-47
2022/05/04 07:42:27;;;;;;;0.30;0.30;;;;;;;;;;1832402;77;26369;-47
2022/05/04 07:45:01;;;;;;;0.20;0.20;;;;;;;;;;1858573;76;26378;-45
2022/05/04 07:47:30;;;;;;;0.30;0.30;;;;;;;;;;1853920;77;26366;-49
2022/05/04 07:49:57;;;;;;;0.47;0.40;;;;;;;;;;1853667;77;26307;-53
2022/05/04 07:52:25;;;;;;;0.35;0.35;;;;;;;;;;1839904;76;26357;-49
2022/05/04 07:54:53;;;;;;;0.25;0.25;;;;;;;;;;1851491;76;26751;-47
2022/05/04 07:57:20;;;;;;;1.27;0.50;;;;;;;;;;1816589;77;26361;-49
2022/05/04 08:04:16;;;;;;;0.40;0.40;;;;;;;;;;1826831;77;26779;-46
2022/05/04 08:05:02;;;;;;;0.95;0.30;;;;;;;;;;1820557;76;26331;-49
2022/05/04 08:07:29;;;;;;;0.80;0.30;;;;;;;;;;1854721;76;26764;-47
2022/05/04 08:09:57;;;;;;;0.40;0.40;;;;;;;;;;1804579;78;26345;-47
2022/05/04 08:12:24;;;;;;;2.02;0.30;;;;;;;;;;1830408;77;26288;-46
2022/05/04 08:14:51;;;;;;;0.30;0.30;;;;;;;;;;1897003;74;26286;-46
2022/05/04 08:17:20;;;;;;;2.22;0.20;;;;;;;;;;1904956;74;26301;-44
2022/05/04 08:19:47;;;;;;;0.78;0.40;;;;;;;;;;1895549;74;26647;-45
2022/05/04 08:22:14;;;;;;;0.62;0.62;;;;;;;;;;1906127;74;26241;-44
2022/05/04 08:24:42;;;;;;;0.40;0.40;;;;;;;;;;1909966;74;26269;-46
2022/05/04 08:27:09;;;;;;;2.75;0.47;;;;;;;;;;1910204;74;26332;-47
2022/05/04 08:29:36;;;;;;;1.12;0.60;;;;;;;;;;1910562;74;26725;-46
2022/05/04 08:32:04;;;;;;;4.90;0.60;;;;;;;;;;1908106;74;26311;-45
2022/05/04 08:34:32;;;;;;;5.45;1.10;;;;;;;;;;1909765;74;26236;-47
2022/05/04 08:37:00;;;;;;;4.22;1.10;;;;;;;;;;1914267;74;26720;-47
2022/05/04 08:39:28;;;;;;;3.77;0.80;;;;;;;;;;1906560;74;26757;-45
2022/05/04 08:41:55;;;;;;;5.35;1.20;;;;;;;;;;1913630;74;26935;-49
2022/05/04 08:44:22;;;;;;;4.42;1.00;;;;;;;;;;1907433;74;26261;-47
2022/05/04 08:46:51;;;;;;;4.12;1.00;;;;;;;;;;1910156;74;26266;-49
2022/05/04 08:49:19;;;;;;;3.37;0.95;;;;;;;;;;1905361;74;26253;-48
2022/05/04 08:51:48;;;;;;;5.90;1.02;;;;;;;;;;1913980;74;26282;-47
2022/05/04 08:54:17;;;;;;;11.60;1.00;;;;;;;;;;1909374;74;26363;-44
2022/05/04 08:56:45;;;;;;;11.38;1.20;;;;;;;;;;1911327;74;26301;-47
2022/05/04 08:59:12;;;;;;;5.55;1.27;;;;;;;;;;1910492;74;26901;-47
2022/05/04 09:01:40;;;;;;;5.00;1.10;;;;;;;;;;1914368;74;26265;-42
2022/05/04 09:04:08;;;;;;;12.55;1.05;;;;;;;;;;1900325;74;26327;-44
2022/05/04 09:06:41;;;;;;;7.53;1.00;;;;;;;;;;1902027;74;26325;-48
2022/05/04 09:09:13;;;;;;;8.53;1.22;;;;;;;;;;1909562;73;26902;-45
2022/05/04 09:11:42;;;;;;;5.33;0.80;;;;;;;;;;1910925;73;26932;-47
2022/05/04 09:14:11;;;;;;;4.12;1.05;;;;;;;;;;1913088;74;26795;-45
2022/05/04 09:16:38;;;;;;;5.67;1.10;;;;;;;;;;1912396;74;26238;-45
2022/05/04 09:19:07;;;;;;;2.27;1.10;;;;;;;;;;1923706;74;26245;-48
2022/05/04 09:21:35;;;;;;;6.95;0.93;;;;;;;;;;1917924;74;26670;-44
2022/05/04 09:24:04;;;;;;;4.30;0.85;;;;;;;;;;1920302;74;26239;-43
2022/05/04 09:26:32;;;;;;;3.35;0.78;;;;;;;;;;1919432;74;26266;-43
2022/05/04 09:29:00;;;;;;;4.83;0.93;;;;;;;;;;1929686;73;26203;-44
2022/05/04 09:31:30;;;;;;;2.90;1.10;;;;;;;;;;1920681;74;26281;-41
2022/05/04 09:33:58;;;;;;;3.25;0.80;;;;;;;;;;1921200;74;26281;-45
2022/05/04 09:44:53;;;;;;;3.87;0.78;;;;;;;;;;1921506;74;26292;-45
2022/05/04 09:45:16;;;;;;;0.62;0.62;;;;;;;;;;1901782;74;26257;-44
2022/05/04 09:47:47;;;;;;;1.85;0.75;;;;;;;;;;1913307;74;26350;-44
2022/05/04 09:50:15;;;;;;;1.12;0.60;;;;;;;;;;1924233;74;26246;-44
2022/05/04 09:52:46;;;;;;;0.65;0.65;;;;;;;;;;1921914;74;26550;-51
2022/05/04 09:55:19;;;;;;;2.67;0.80;;;;;;;;;;1914977;74;26394;-47
2022/05/04 09:57:47;;;;;;;6.55;0.80;;;;;;;;;;1922992;74;26254;-48
2022/05/04 10:00:17;;;;;;;3.25;0.85;;;;;;;;;;1892388;74;28102;-44
2022/05/04 10:02:44;;;;;;;6.87;0.72;;;;;;;;;;1922279;74;26230;-43
2022/05/04 10:05:11;;;;;;;1.80;0.50;;;;;;;;;;1919367;74;26322;-49
2022/05/04 10:07:40;;;;;;;3.62;0.68;;;;;;;;;;1902613;73;26245;-46
2022/05/04 10:10:09;;;;;;;1.82;0.42;;;;;;;;;;1912494;74;27168;-43
2022/05/04 10:12:38;;;;;;;3.05;0.60;;;;;;;;;;1915896;74;26296;-44
2022/05/04 10:15:13;;;;;;;0.68;0.68;;;;;;;;;;1899454;74;26332;-43
2022/05/04 10:17:58;;;;;;;2.55;0.70;;;;;;;;;;1901967;75;25770;-45
2022/05/04 10:20:39;;;;;;;0.50;0.50;;;;;;;;;;1907927;74;26219;-48
2022/05/04 10:23:11;;;;;;;1.00;0.50;;;;;;;;;;1892896;74;26246;-47
2022/05/04 10:25:39;;;;;;;2.30;0.55;;;;;;;;;;1900420;74;26238;-42
2022/05/04 10:28:07;;;;;;;1.40;0.40;;;;;;;;;;1907636;74;26852;-49
2022/05/04 10:30:36;;;;;;;0.53;0.53;;;;;;;;;;1899252;74;26250;-47
2022/05/04 10:33:09;;;;;;;1.45;0.50;;;;;;;;;;1908008;74;26273;-43
2022/05/04 10:35:35;;;;;;;3.70;0.50;;;;;;;;;;1907697;74;26756;-52
2022/05/04 10:38:05;;;;;;;0.50;0.50;;;;;;;;;;1883320;75;26681;-46
2022/05/04 10:40:50;;;;;;;0.50;0.50;;;;;;;;;;1899718;74;26280;-47
2022/05/04 10:43:19;;;;;;;0.50;0.30;;;;;;;;;;1906037;74;26320;-45
2022/05/04 10:45:51;;;;;;;2.17;0.55;;;;;;;;;;1904567;74;26239;-52
2022/05/04 10:48:20;;;;;;;2.42;0.70;;;;;;;;;;1905331;74;26563;-49
2022/05/04 10:50:49;;;;;;;0.95;0.60;;;;;;;;;;1909711;74;26316;-45
2022/05/04 10:53:20;;;;;;;3.17;0.70;;;;;;;;;;1903951;75;26340;-46
2022/05/04 10:56:08;;;;;;;2.30;1.00;;;;;;;;;;1906416;75;26254;-44
2022/05/04 10:58:33;;;;;;;2.40;0.65;;;;;;;;;;1907337;75;26681;-44
2022/05/04 11:01:08;;;;;;;0.80;0.70;;;;;;;;;;1900045;75;26269;-47
2022/05/04 11:03:36;;;;;;;1.60;1.00;;;;;;;;;;1909515;75;26324;-46
2022/05/04 11:06:05;;;;;;;0.90;0.90;;;;;;;;;;1901481;74;27317;-44
2022/05/04 11:08:35;;;;;;;1.42;0.95;;;;;;;;;;1907810;74;26274;-47
2022/05/04 11:11:03;;;;;;;0.80;0.80;;;;;;;;;;1908086;75;26298;-48
2022/05/04 11:13:31;;;;;;;0.80;0.80;;;;;;;;;;1906622;74;27193;-51
2022/05/04 11:16:01;;;;;;;0.98;0.90;;;;;;;;;;1917531;74;26290;-45
2022/05/04 11:18:30;;;;;;;1.12;1.02;;;;;;;;;;1919263;73;26741;-48
2022/05/04 11:20:57;;;;;;;0.90;0.90;;;;;;;;;;1911281;74;26847;-42
2022/05/04 11:23:25;;;;;;;1.30;0.80;;;;;;;;;;1909224;74;26230;-48
2022/05/04 11:25:52;;;;;;;1.95;0.80;;;;;;;;;;1921361;74;26190;-49
2022/05/04 11:28:21;;;;;;;0.82;0.80;;;;;;;;;;1921129;74;26817;-45
2022/05/04 11:30:48;;;;;;;0.70;0.70;;;;;;;;;;1912446;74;26751;-53
2022/05/04 11:33:16;;;;;;;0.80;0.80;;;;;;;;;;1917857;74;26242;-48
2022/05/04 11:35:43;;;;;;;1.85;0.78;;;;;;;;;;1921317;74;26547;-48
2022/05/04 11:38:17;;;;;;;2.20;0.80;;;;;;;;;;1918557;74;26198;-44
2022/05/04 11:40:46;;;;;;;3.45;0.78;;;;;;;;;;1907008;73;26293;-43
2022/05/04 11:43:24;;;;;;;0.70;0.70;;;;;;;;;;1913372;74;26277;-50
2022/05/04 11:45:52;;;;;;;3.50;0.62;;;;;;;;;;1911418;74;26735;-45
2022/05/04 11:48:19;;;;;;;2.20;0.60;;;;;;;;;;1921091;74;26332;-45
2022/05/04 11:50:47;;;;;;;2.83;0.60;;;;;;;;;;1921372;74;26249;-44
2022/05/04 11:53:14;;;;;;;1.05;0.70;;;;;;;;;;1920172;74;26289;-46
2022/05/04 11:55:42;;;;;;;0.68;0.57;;;;;;;;;;1917383;74;26359;-49
2022/05/04 11:58:10;;;;;;;0.70;0.70;;;;;;;;;;1912228;73;26671;-47
2022/05/04 12:00:38;;;;;;;2.98;0.68;;;;;;;;;;1917726;74;26217;-41
2022/05/04 12:03:06;;;;;;;0.90;0.60;;;;;;;;;;1921386;74;26709;-43
2022/05/04 12:05:34;;;;;;;1.00;0.57;;;;;;;;;;1908597;73;26249;-43
2022/05/04 12:08:04;;;;;;;1.27;0.60;;;;;;;;;;1896362;74;26768;-48
2022/05/04 12:10:32;;;;;;;0.50;0.50;;;;;;;;;;1909723;74;26305;-45
2022/05/04 12:12:59;;;;;;;1.25;0.60;;;;;;;;;;1886950;75;26261;-43
2022/05/04 12:15:28;;;;;;;0.50;0.50;;;;;;;;;;1878702;75;26289;-47
2022/05/04 12:17:59;;;;;;;0.55;0.55;;;;;;;;;;1874277;75;26923;-48
2022/05/04 12:20:28;;;;;;;0.50;0.50;;;;;;;;;;1909956;74;26895;-45
2022/05/04 12:22:59;;;;;;;0.60;0.60;;;;;;;;;;1913637;74;26753;-49
2022/05/04 12:25:26;;;;;;;1.15;0.60;;;;;;;;;;1911903;74;26503;-47
2022/05/04 12:27:55;;;;;;;0.42;0.42;;;;;;;;;;1897280;74;26235;-48
2022/05/04 12:33:10;;;;;;;0.42;0.42;;;;;;;;;;1904037;74;26309;-47
2022/05/04 12:35:45;;;;;;;1.95;0.55;;;;;;;;;;1909323;74;26253;-46
2022/05/04 12:38:16;;;;;;;0.55;0.50;;;;;;;;;;1900311;74;26314;-47
2022/05/04 12:40:44;;;;;;;0.40;0.40;;;;;;;;;;1910794;74;26351;-47
2022/05/04 12:43:12;;;;;;;0.82;0.35;;;;;;;;;;1909247;74;26238;-45
2022/05/04 12:45:39;;;;;;;0.45;0.45;;;;;;;;;;1910238;74;26730;-48
2022/05/04 12:48:09;;;;;;;0.40;0.30;;;;;;;;;;1909080;74;26222;-46
2022/05/04 12:50:37;;;;;;;0.25;0.25;;;;;;;;;;1917010;74;26306;-47
2022/05/04 12:53:05;;;;;;;1.02;0.47;;;;;;;;;;1908285;74;26238;-46
2022/05/04 12:58:18;;;;;;;0.30;0.30;;;;;;;;;;1877066;75;26627;-46
2022/05/04 13:00:45;;;;;;;3.05;0.55;;;;;;;;;;1876263;75;26311;-45
2022/05/04 13:03:12;;;;;;;1.52;0.40;;;;;;;;;;1877793;75;26247;-46
2022/05/04 13:05:40;;;;;;;0.30;0.30;;;;;;;;;;1871276;75;26264;-41
2022/05/04 13:08:08;;;;;;;0.30;0.30;;;;;;;;;;1870337;75;26317;-44
2022/05/04 13:10:36;;;;;;;0.50;0.50;;;;;;;;;;1873022;75;26387;-42
2022/05/04 13:13:04;;;;;;;0.25;0.25;;;;;;;;;;1879240;75;26339;-48
2022/05/04 13:15:32;;;;;;;0.20;0.20;;;;;;;;;;1865455;75;26397;-52
2022/05/04 13:18:00;;;;;;;1.15;0.30;;;;;;;;;;1875638;75;26273;-48
2022/05/04 13:20:27;;;;;;;0.20;0.20;;;;;;;;;;1864739;75;26257;-45
2022/05/04 13:22:54;;;;;;;0.30;0.30;;;;;;;;;;1878604;75;26338;-42
2022/05/04 13:25:22;;;;;;;0.20;0.20;;;;;;;;;;1878820;75;26269;-42
2022/05/04 13:27:49;;;;;;;0.40;0.40;;;;;;;;;;1881306;75;26246;-44
2022/05/04 13:30:16;;;;;;;0.55;0.55;;;;;;;;;;1877381;75;26271;-43
2022/05/04 13:32:43;;;;;;;0.60;0.20;;;;;;;;;;1872620;75;26273;-45
2022/05/04 13:35:11;;;;;;;0.25;0.25;;;;;;;;;;1867224;75;26337;-49
2022/05/04 13:37:38;;;;;;;0.30;0.30;;;;;;;;;;1874814;75;26629;-41
2022/05/04 13:40:06;;;;;;;0.30;0.30;;;;;;;;;;1875915;75;26931;-42
2022/05/04 13:42:34;;;;;;;0.23;0.23;;;;;;;;;;1857485;75;26132;-45
2022/05/04 13:45:02;;;;;;;0.75;0.30;;;;;;;;;;1860875;75;26332;-52
2022/05/04 13:47:29;;;;;;;0.30;0.30;;;;;;;;;;1876414;75;26334;-49
2022/05/04 13:49:57;;;;;;;0.30;0.30;;;;;;;;;;1868921;75;26806;-49
2022/05/04 13:55:09;;;;;;;0.30;0.30;;;;;;;;;;1876331;75;26265;-48
2022/05/04 13:57:37;;;;;;;0.37;0.30;;;;;;;;;;1878970;75;26242;-48
2022/05/04 14:00:05;;;;;;;0.40;0.28;;;;;;;;;;1878211;75;26260;-51
2022/05/04 14:02:33;;;;;;;0.17;0.17;;;;;;;;;;1878048;75;26237;-49
2022/05/04 14:05:00;;;;;;;0.93;0.30;;;;;;;;;;1878239;75;26273;-49
2022/05/04 14:07:28;;;;;;;3.55;0.40;;;;;;;;;;1884950;75;26311;-49
2022/05/04 14:09:55;;;;;;;0.65;0.30;;;;;;;;;;1879464;75;26297;-51
2022/05/04 14:12:22;;;;;;;0.30;0.30;;;;;;;;;;1879393;75;26244;-50
2022/05/04 14:15:01;;;;;;;9.95;0.40;;;;;;;;;;1879710;75;26312;-49
2022/05/04 14:17:29;;;;;;;0.30;0.30;;;;;;;;;;1873836;75;27360;-53
2022/05/04 14:19:56;;;;;;;0.90;0.20;;;;;;;;;;1883640;75;26263;-52
2022/05/04 14:22:24;;;;;;;2.47;0.40;;;;;;;;;;1872644;75;26206;-52
2022/05/04 14:24:51;;;;;;;2.08;0.30;;;;;;;;;;1876105;75;26362;-50
2022/05/04 14:27:18;;;;;;;1.80;0.30;;;;;;;;;;1877116;75;26636;-51
2022/05/04 14:29:46;;;;;;;0.20;0.20;;;;;;;;;;1866488;75;26281;-52
2022/05/04 14:32:13;;;;;;;0.15;0.15;;;;;;;;;;1878937;75;26242;-55
2022/05/04 14:34:40;;;;;;;1.75;0.25;;;;;;;;;;1871545;75;28156;-50
2022/05/04 14:37:07;;;;;;;1.67;0.30;;;;;;;;;;1866921;75;26397;-54
2022/05/04 14:39:35;;;;;;;1.27;0.20;;;;;;;;;;1871644;75;26236;-51
2022/05/04 14:42:03;;;;;;;0.20;0.20;;;;;;;;;;1868355;74;26346;-50
2022/05/04 14:44:30;;;;;;;0.30;0.30;;;;;;;;;;1889475;75;26236;-49
2022/05/04 14:46:59;;;;;;;0.23;0.20;;;;;;;;;;1886512;75;26273;-54
2022/05/04 14:49:26;;;;;;;0.20;0.20;;;;;;;;;;1873692;75;26120;-49
2022/05/04 14:51:54;;;;;;;1.20;0.30;;;;;;;;;;1878458;75;26307;-51
2022/05/04 14:54:21;;;;;;;0.40;0.30;;;;;;;;;;1886418;74;26308;-49
2022/05/04 14:56:50;;;;;;;0.40;0.20;;;;;;;;;;1902613;73;26551;-49
2022/05/04 14:59:18;;;;;;;0.30;0.30;;;;;;;;;;1897140;74;26261;-52
2022/05/04 15:01:45;;;;;;;0.20;0.20;;;;;;;;;;1915771;74;26252;-47
2022/05/04 15:06:58;;;;;;;0.10;0.10;;;;;;;;;;1925295;74;26255;-52
2022/05/04 15:09:25;;;;;;;0.20;0.20;;;;;;;;;;1915054;74;26413;-49
2022/05/04 15:11:53;;;;;;;0.40;0.40;;;;;;;;;;1920387;74;26264;-49
2022/05/04 15:14:20;;;;;;;0.20;0.20;;;;;;;;;;1913507;74;26701;-50
2022/05/04 15:16:47;;;;;;;0.57;0.20;;;;;;;;;;1908933;73;27217;-52
2022/05/04 15:19:15;;;;;;;0.30;0.30;;;;;;;;;;1886990;74;26253;-49
2022/05/04 15:21:42;;;;;;;0.20;0.20;;;;;;;;;;1915806;74;26307;-54